sensor_id;sensor_type;location;lat;lon;timestamp;pressure;altitude;pressure_sealevel;temperature;humidity
24154;BME280;12312;53.362;-1.518;2023-05-08T00:01:24;99399.69;;;15.14;100.00
24154;BME280;12312;53.362;-1.518;2023-05-08T00:04:08;99402.00;;;15.28;100.00
24154;BME280;12312;53.362;-1.518;2023-05-08T00:06:52;99400.84;;;15.21;100.00
24154;BME280;12312;53.362;-1.518;2023-05-08T00:09:36;99406.94;;;15.23;100.00
24154;BME280;12312;53.362;-1.518;2023-05-08T00:12:20;99404.78;;;15.17;100.00
24154;BME280;12312;53.362;-1.518;2023-05-08T00:15:04;99402.53;;;15.22;100.00
24154;BME280;12312;53.362;-1.518;2023-05-08T00:17:49;99405.22;;;15.22;100.00
24154;BME280;12312;53.362;-1.518;2023-05-08T00:20:33;99399.16;;;15.20;100.00
24154;BME280;12312;53.362;-1.518;2023-05-08T00:23:17;99391.69;;;14.94;100.00
24154;BME280;12312;53.362;-1.518;2023-05-08T00:26:01;99393.16;;;15.07;100.00
24154;BME280;12312;53.362;-1.518;2023-05-08T00:28:45;99394.63;;;15.11;100.00
24154;BME280;12312;53.362;-1.518;2023-05-08T00:31:29;99387.19;;;14.94;100.00
24154;BME280;12312;53.362;-1.518;2023-05-08T00:34:13;99387.09;;;14.75;100.00
24154;BME280;12312;53.362;-1.518;2023-05-08T00:36:57;99381.47;;;14.78;100.00
24154;BME280;12312;53.362;-1.518;2023-05-08T00:39:41;99384.28;;;14.77;100.00
24154;BME280;12312;53.362;-1.518;2023-05-08T00:42:25;99380.50;;;14.79;100.00
24154;BME280;12312;53.362;-1.518;2023-05-08T00:45:10;99384.13;;;14.78;100.00
24154;BME280;12312;53.362;-1.518;2023-05-08T00:47:54;99386.28;;;14.84;100.00
24154;BME280;12312;53.362;-1.518;2023-05-08T00:50:38;99386.81;;;14.78;100.00
24154;BME280;12312;53.362;-1.518;2023-05-08T00:53:24;99392.91;;;14.80;100.00
24154;BME280;12312;53.362;-1.518;2023-05-08T00:56:10;99382.31;;;14.79;100.00
24154;BME280;12312;53.362;-1.518;2023-05-08T00:58:55;99380.03;;;14.74;100.00
24154;BME280;12312;53.362;-1.518;2023-05-08T01:01:40;99373.88;;;14.83;100.00
24154;BME280;12312;53.362;-1.518;2023-05-08T01:04:25;99371.53;;;14.69;100.00
24154;BME280;12312;53.362;-1.518;2023-05-08T01:07:10;99366.19;;;14.69;100.00
24154;BME280;12312;53.362;-1.518;2023-05-08T01:09:54;99370.13;;;14.65;100.00
24154;BME280;12312;53.362;-1.518;2023-05-08T01:13:04;99368.44;;;14.64;100.00
24154;BME280;12312;53.362;-1.518;2023-05-08T01:22:59;99372.94;;;14.64;100.00
24154;BME280;12312;53.362;-1.518;2023-05-08T01:29:26;99359.63;;;14.32;100.00
24154;BME280;12312;53.362;-1.518;2023-05-08T01:35:18;99350.41;;;14.25;100.00
24154;BME280;12312;53.362;-1.518;2023-05-08T01:38:55;99358.66;;;14.33;100.00
24154;BME280;12312;53.362;-1.518;2023-05-08T01:41:30;99342.44;;;14.14;100.00
24154;BME280;12312;53.362;-1.518;2023-05-08T01:44:23;99348.56;;;14.05;100.00
24154;BME280;12312;53.362;-1.518;2023-05-08T01:47:12;99348.16;;;13.89;100.00
24154;BME280;12312;53.362;-1.518;2023-05-08T01:50:13;99352.03;;;13.96;100.00
24154;BME280;12312;53.362;-1.518;2023-05-08T01:53:06;99344.56;;;13.99;100.00
24154;BME280;12312;53.362;-1.518;2023-05-08T01:55:57;99348.50;;;13.95;100.00
24154;BME280;12312;53.362;-1.518;2023-05-08T01:58:43;99349.53;;;13.83;100.00
24154;BME280;12312;53.362;-1.518;2023-05-08T02:01:28;99344.47;;;13.69;100.00
24154;BME280;12312;53.362;-1.518;2023-05-08T02:04:15;99344.34;;;13.71;100.00
24154;BME280;12312;53.362;-1.518;2023-05-08T02:07:00;99346.97;;;13.82;100.00
24154;BME280;12312;53.362;-1.518;2023-05-08T02:09:45;99334.13;;;13.76;100.00
24154;BME280;12312;53.362;-1.518;2023-05-08T02:12:31;99336.28;;;13.82;100.00
24154;BME280;12312;53.362;-1.518;2023-05-08T02:15:15;99337.81;;;13.64;100.00
24154;BME280;12312;53.362;-1.518;2023-05-08T02:18:01;99345.06;;;13.73;100.00
24154;BME280;12312;53.362;-1.518;2023-05-08T02:20:49;99348.50;;;13.64;100.00
24154;BME280;12312;53.362;-1.518;2023-05-08T02:23:34;99343.34;;;13.40;100.00
24154;BME280;12312;53.362;-1.518;2023-05-08T02:26:19;99343.94;;;13.44;100.00
24154;BME280;12312;53.362;-1.518;2023-05-08T02:29:05;99334.25;;;13.32;100.00
24154;BME280;12312;53.362;-1.518;2023-05-08T02:31:51;99350.66;;;13.38;100.00
24154;BME280;12312;53.362;-1.518;2023-05-08T02:34:36;99345.59;;;13.56;100.00
24154;BME280;12312;53.362;-1.518;2023-05-08T02:37:21;99343.03;;;13.65;100.00
24154;BME280;12312;53.362;-1.518;2023-05-08T02:40:07;99337.34;;;13.59;100.00
24154;BME280;12312;53.362;-1.518;2023-05-08T02:42:53;99331.00;;;13.60;100.00
24154;BME280;12312;53.362;-1.518;2023-05-08T02:46:03;99334.16;;;13.65;100.00
24154;BME280;12312;53.362;-1.518;2023-05-08T02:49:06;99329.84;;;13.42;100.00
24154;BME280;12312;53.362;-1.518;2023-05-08T02:51:59;99319.34;;;13.61;100.00
24154;BME280;12312;53.362;-1.518;2023-05-08T02:54:54;99320.38;;;13.38;100.00
24154;BME280;12312;53.362;-1.518;2023-05-08T02:57:46;99312.13;;;13.30;100.00
24154;BME280;12312;53.362;-1.518;2023-05-08T03:00:36;99313.50;;;13.24;100.00
24154;BME280;12312;53.362;-1.518;2023-05-08T03:03:25;99315.44;;;13.22;100.00
24154;BME280;12312;53.362;-1.518;2023-05-08T03:06:25;99306.53;;;13.33;100.00
24154;BME280;12312;53.362;-1.518;2023-05-08T03:09:22;99305.34;;;13.26;100.00
24154;BME280;12312;53.362;-1.518;2023-05-08T03:12:13;99305.16;;;13.07;100.00
24154;BME280;12312;53.362;-1.518;2023-05-08T03:15:14;99302.59;;;12.94;100.00
24154;BME280;12312;53.362;-1.518;2023-05-08T03:18:09;99311.69;;;12.92;100.00
24154;BME280;12312;53.362;-1.518;2023-05-08T03:20:57;99299.81;;;12.85;100.00
24154;BME280;12312;53.362;-1.518;2023-05-08T03:23:42;99300.81;;;12.73;100.00
24154;BME280;12312;53.362;-1.518;2023-05-08T03:26:28;99308.06;;;12.71;100.00
24154;BME280;12312;53.362;-1.518;2023-05-08T03:29:12;99299.31;;;12.80;100.00
24154;BME280;12312;53.362;-1.518;2023-05-08T03:31:59;99290.38;;;12.70;100.00
24154;BME280;12312;53.362;-1.518;2023-05-08T03:34:45;99291.81;;;12.74;100.00
24154;BME280;12312;53.362;-1.518;2023-05-08T03:37:31;99297.63;;;12.68;100.00
24154;BME280;12312;53.362;-1.518;2023-05-08T03:40:15;99298.88;;;12.64;100.00
24154;BME280;12312;53.362;-1.518;2023-05-08T03:42:59;99290.25;;;12.60;100.00
24154;BME280;12312;53.362;-1.518;2023-05-08T03:45:45;99285.28;;;12.67;100.00
24154;BME280;12312;53.362;-1.518;2023-05-08T03:48:32;99281.63;;;12.79;100.00
24154;BME280;12312;53.362;-1.518;2023-05-08T03:51:16;99281.13;;;12.74;100.00
24154;BME280;12312;53.362;-1.518;2023-05-08T03:54:01;99282.31;;;12.81;100.00
24154;BME280;12312;53.362;-1.518;2023-05-08T03:56:45;99272.13;;;12.75;100.00
24154;BME280;12312;53.362;-1.518;2023-05-08T03:59:45;99278.94;;;12.79;100.00
24154;BME280;12312;53.362;-1.518;2023-05-08T04:02:43;99269.00;;;12.70;100.00
24154;BME280;12312;53.362;-1.518;2023-05-08T04:05:42;99267.03;;;12.72;100.00
24154;BME280;12312;53.362;-1.518;2023-05-08T04:08:33;99263.66;;;12.70;100.00
24154;BME280;12312;53.362;-1.518;2023-05-08T04:11:29;99266.28;;;12.81;100.00
24154;BME280;12312;53.362;-1.518;2023-05-08T04:14:18;99265.59;;;12.90;100.00
24154;BME280;12312;53.362;-1.518;2023-05-08T04:17:05;99266.91;;;12.84;100.00
24154;BME280;12312;53.362;-1.518;2023-05-08T04:19:57;99269.34;;;12.87;100.00
24154;BME280;12312;53.362;-1.518;2023-05-08T04:22:44;99272.00;;;12.76;100.00
24154;BME280;12312;53.362;-1.518;2023-05-08T04:25:29;99260.09;;;13.02;100.00
24154;BME280;12312;53.362;-1.518;2023-05-08T04:28:17;99263.88;;;13.00;100.00
24154;BME280;12312;53.362;-1.518;2023-05-08T04:31:02;99253.91;;;12.91;100.00
24154;BME280;12312;53.362;-1.518;2023-05-08T04:33:48;99259.03;;;13.05;100.00
24154;BME280;12312;53.362;-1.518;2023-05-08T04:36:32;99255.88;;;13.00;100.00
24154;BME280;12312;53.362;-1.518;2023-05-08T04:39:17;99257.56;;;13.01;100.00
24154;BME280;12312;53.362;-1.518;2023-05-08T04:42:02;99259.75;;;12.96;100.00
24154;BME280;12312;53.362;-1.518;2023-05-08T04:44:47;99254.97;;;12.99;100.00
24154;BME280;12312;53.362;-1.518;2023-05-08T04:47:31;99250.31;;;12.70;100.00
24154;BME280;12312;53.362;-1.518;2023-05-08T04:50:15;99247.41;;;12.50;100.00
24154;BME280;12312;53.362;-1.518;2023-05-08T04:52:59;99259.81;;;12.51;100.00
24154;BME280;12312;53.362;-1.518;2023-05-08T04:55:43;99249.69;;;12.55;100.00
24154;BME280;12312;53.362;-1.518;2023-05-08T04:58:27;99249.13;;;12.51;100.00
24154;BME280;12312;53.362;-1.518;2023-05-08T05:01:11;99250.06;;;12.62;100.00
24154;BME280;12312;53.362;-1.518;2023-05-08T05:03:55;99250.81;;;12.64;100.00
24154;BME280;12312;53.362;-1.518;2023-05-08T05:06:39;99237.41;;;12.75;100.00
24154;BME280;12312;53.362;-1.518;2023-05-08T05:09:23;99245.91;;;12.69;100.00
24154;BME280;12312;53.362;-1.518;2023-05-08T05:12:08;99250.78;;;12.75;100.00
24154;BME280;12312;53.362;-1.518;2023-05-08T05:14:52;99254.28;;;12.86;100.00
24154;BME280;12312;53.362;-1.518;2023-05-08T05:17:36;99240.81;;;12.88;100.00
24154;BME280;12312;53.362;-1.518;2023-05-08T05:20:21;99244.94;;;12.81;100.00
24154;BME280;12312;53.362;-1.518;2023-05-08T05:23:05;99248.34;;;13.05;100.00
24154;BME280;12312;53.362;-1.518;2023-05-08T05:25:50;99250.25;;;12.92;100.00
24154;BME280;12312;53.362;-1.518;2023-05-08T05:28:34;99252.44;;;12.98;100.00
24154;BME280;12312;53.362;-1.518;2023-05-08T05:31:18;99244.19;;;13.01;100.00
24154;BME280;12312;53.362;-1.518;2023-05-08T05:34:02;99255.59;;;12.92;100.00
24154;BME280;12312;53.362;-1.518;2023-05-08T05:36:46;99246.38;;;12.96;100.00
24154;BME280;12312;53.362;-1.518;2023-05-08T05:39:31;99255.38;;;13.06;100.00
24154;BME280;12312;53.362;-1.518;2023-05-08T05:42:15;99252.56;;;13.07;100.00
24154;BME280;12312;53.362;-1.518;2023-05-08T05:44:59;99255.88;;;13.00;100.00
24154;BME280;12312;53.362;-1.518;2023-05-08T05:47:45;99258.78;;;13.08;100.00
24154;BME280;12312;53.362;-1.518;2023-05-08T05:50:32;99256.34;;;12.94;100.00
24154;BME280;12312;53.362;-1.518;2023-05-08T05:53:16;99252.69;;;12.95;100.00
24154;BME280;12312;53.362;-1.518;2023-05-08T05:56:00;99259.09;;;13.14;100.00
24154;BME280;12312;53.362;-1.518;2023-05-08T05:58:44;99258.69;;;13.30;100.00
24154;BME280;12312;53.362;-1.518;2023-05-08T06:01:28;99248.09;;;13.08;100.00
24154;BME280;12312;53.362;-1.518;2023-05-08T06:04:12;99245.66;;;12.94;100.00
24154;BME280;12312;53.362;-1.518;2023-05-08T06:06:57;99249.53;;;13.01;100.00
24154;BME280;12312;53.362;-1.518;2023-05-08T06:09:41;99245.66;;;12.94;100.00
24154;BME280;12312;53.362;-1.518;2023-05-08T06:12:25;99247.84;;;13.00;100.00
24154;BME280;12312;53.362;-1.518;2023-05-08T06:15:10;99243.47;;;12.99;100.00
24154;BME280;12312;53.362;-1.518;2023-05-08T06:17:57;99253.94;;;13.02;100.00
24154;BME280;12312;53.362;-1.518;2023-05-08T06:20:41;99256.72;;;13.00;100.00
24154;BME280;12312;53.362;-1.518;2023-05-08T06:23:26;99244.69;;;13.06;100.00
24154;BME280;12312;53.362;-1.518;2023-05-08T06:26:10;99242.22;;;13.14;100.00
24154;BME280;12312;53.362;-1.518;2023-05-08T06:28:54;99233.25;;;13.04;100.00
24154;BME280;12312;53.362;-1.518;2023-05-08T06:31:39;99239.56;;;12.92;100.00
24154;BME280;12312;53.362;-1.518;2023-05-08T06:34:24;99244.22;;;12.90;100.00
24154;BME280;12312;53.362;-1.518;2023-05-08T06:37:08;99231.38;;;12.84;100.00
24154;BME280;12312;53.362;-1.518;2023-05-08T06:39:52;99234.84;;;12.84;100.00
24154;BME280;12312;53.362;-1.518;2023-05-08T06:42:36;99226.97;;;12.72;100.00
24154;BME280;12312;53.362;-1.518;2023-05-08T06:45:20;99236.22;;;12.79;100.00
24154;BME280;12312;53.362;-1.518;2023-05-08T06:48:04;99237.72;;;12.61;100.00
24154;BME280;12312;53.362;-1.518;2023-05-08T06:50:50;99239.84;;;12.78;100.00
24154;BME280;12312;53.362;-1.518;2023-05-08T06:53:34;99235.41;;;12.45;100.00
24154;BME280;12312;53.362;-1.518;2023-05-08T06:56:18;99240.63;;;12.46;100.00
24154;BME280;12312;53.362;-1.518;2023-05-08T06:59:02;99244.13;;;12.58;100.00
24154;BME280;12312;53.362;-1.518;2023-05-08T07:01:47;99239.63;;;12.58;100.00
24154;BME280;12312;53.362;-1.518;2023-05-08T07:04:31;99241.81;;;12.53;100.00
24154;BME280;12312;53.362;-1.518;2023-05-08T07:07:16;99232.13;;;12.52;100.00
24154;BME280;12312;53.362;-1.518;2023-05-08T07:10:00;99235.28;;;12.46;100.00
24154;BME280;12312;53.362;-1.518;2023-05-08T07:12:44;99228.50;;;12.42;100.00
24154;BME280;12312;53.362;-1.518;2023-05-08T07:15:30;99224.38;;;12.49;100.00
24154;BME280;12312;53.362;-1.518;2023-05-08T07:18:14;99235.03;;;12.27;100.00
24154;BME280;12312;53.362;-1.518;2023-05-08T07:20:58;99236.25;;;12.23;100.00
24154;BME280;12312;53.362;-1.518;2023-05-08T07:23:43;99226.66;;;12.32;100.00
24154;BME280;12312;53.362;-1.518;2023-05-08T07:26:26;99228.13;;;12.36;100.00
24154;BME280;12312;53.362;-1.518;2023-05-08T07:29:10;99228.97;;;12.47;100.00
24154;BME280;12312;53.362;-1.518;2023-05-08T07:31:54;99234.53;;;12.55;100.00
24154;BME280;12312;53.362;-1.518;2023-05-08T07:34:39;99219.25;;;12.46;100.00
24154;BME280;12312;53.362;-1.518;2023-05-08T07:37:23;99225.56;;;12.56;100.00
24154;BME280;12312;53.362;-1.518;2023-05-08T07:40:08;99230.19;;;12.54;100.00
24154;BME280;12312;53.362;-1.518;2023-05-08T07:42:52;99225.81;;;12.53;100.00
24154;BME280;12312;53.362;-1.518;2023-05-08T07:45:36;99222.13;;;12.66;100.00
24154;BME280;12312;53.362;-1.518;2023-05-08T07:48:20;99228.84;;;12.49;100.00
24154;BME280;12312;53.362;-1.518;2023-05-08T07:51:04;99228.84;;;12.49;100.00
24154;BME280;12312;53.362;-1.518;2023-05-08T07:53:48;99221.94;;;12.57;100.00
24154;BME280;12312;53.362;-1.518;2023-05-08T07:56:33;99228.72;;;12.62;100.00
24154;BME280;12312;53.362;-1.518;2023-05-08T07:59:18;99222.19;;;12.54;100.00
24154;BME280;12312;53.362;-1.518;2023-05-08T08:02:02;99218.78;;;12.41;100.00
24154;BME280;12312;53.362;-1.518;2023-05-08T08:04:45;99225.72;;;12.44;100.00
24154;BME280;12312;53.362;-1.518;2023-05-08T08:07:30;99222.44;;;12.51;100.00
24154;BME280;12312;53.362;-1.518;2023-05-08T08:10:15;99227.53;;;12.54;100.00
24154;BME280;12312;53.362;-1.518;2023-05-08T08:12:59;99228.00;;;12.48;100.00
24154;BME280;12312;53.362;-1.518;2023-05-08T08:15:44;99223.75;;;12.57;100.00
24154;BME280;12312;53.362;-1.518;2023-05-08T08:18:29;99231.16;;;12.42;100.00
24154;BME280;12312;53.362;-1.518;2023-05-08T08:21:13;99229.25;;;12.33;100.00
24154;BME280;12312;53.362;-1.518;2023-05-08T08:23:57;99224.13;;;12.30;100.00
24154;BME280;12312;53.362;-1.518;2023-05-08T08:26:44;99219.75;;;12.40;100.00
24154;BME280;12312;53.362;-1.518;2023-05-08T08:29:29;99226.31;;;12.36;100.00
24154;BME280;12312;53.362;-1.518;2023-05-08T08:32:13;99221.81;;;12.26;100.00
24154;BME280;12312;53.362;-1.518;2023-05-08T08:34:57;99219.41;;;12.12;100.00
24154;BME280;12312;53.362;-1.518;2023-05-08T08:37:42;99227.03;;;12.16;100.00
24154;BME280;12312;53.362;-1.518;2023-05-08T08:40:26;99231.53;;;12.16;100.00
24154;BME280;12312;53.362;-1.518;2023-05-08T08:43:11;99224.84;;;12.21;100.00
24154;BME280;12312;53.362;-1.518;2023-05-08T08:45:55;99235.53;;;12.10;100.00
24154;BME280;12312;53.362;-1.518;2023-05-08T08:48:42;99229.69;;;12.27;100.00
24154;BME280;12312;53.362;-1.518;2023-05-08T08:51:31;99230.91;;;12.12;100.00
24154;BME280;12312;53.362;-1.518;2023-05-08T08:54:20;99237.69;;;12.05;100.00
24154;BME280;12312;53.362;-1.518;2023-05-08T08:57:07;99235.03;;;12.05;100.00
24154;BME280;12312;53.362;-1.518;2023-05-08T08:59:52;99230.91;;;12.01;100.00
24154;BME280;12312;53.362;-1.518;2023-05-08T09:02:37;99234.91;;;12.07;100.00
24154;BME280;12312;53.362;-1.518;2023-05-08T09:05:21;99241.56;;;12.12;100.00
24154;BME280;12312;53.362;-1.518;2023-05-08T09:08:07;99239.66;;;12.14;100.00
24154;BME280;12312;53.362;-1.518;2023-05-08T09:10:53;99244.50;;;12.20;100.00
24154;BME280;12312;53.362;-1.518;2023-05-08T09:13:38;99235.53;;;12.43;100.00
24154;BME280;12312;53.362;-1.518;2023-05-08T09:16:23;99225.59;;;12.34;100.00
24154;BME280;12312;53.362;-1.518;2023-05-08T09:19:07;99222.66;;;12.48;100.00
24154;BME280;12312;53.362;-1.518;2023-05-08T09:21:52;99227.28;;;12.57;100.00
24154;BME280;12312;53.362;-1.518;2023-05-08T09:24:56;99223.50;;;12.71;100.00
24154;BME280;12312;53.362;-1.518;2023-05-08T09:27:40;99214.06;;;12.56;100.00
24154;BME280;12312;53.362;-1.518;2023-05-08T09:30:24;99214.38;;;12.63;100.00
24154;BME280;12312;53.362;-1.518;2023-05-08T09:33:08;99211.22;;;12.69;100.00
24154;BME280;12312;53.362;-1.518;2023-05-08T09:35:53;99205.50;;;12.73;100.00
24154;BME280;12312;53.362;-1.518;2023-05-08T09:38:39;99200.38;;;12.92;100.00
24154;BME280;12312;53.362;-1.518;2023-05-08T09:41:23;99203.19;;;12.69;100.00
24154;BME280;12312;53.362;-1.518;2023-05-08T09:44:07;99200.41;;;12.70;100.00
24154;BME280;12312;53.362;-1.518;2023-05-08T09:47:08;99192.03;;;12.75;100.00
24154;BME280;12312;53.362;-1.518;2023-05-08T09:50:07;99184.75;;;12.77;100.00
24154;BME280;12312;53.362;-1.518;2023-05-08T09:52:52;99173.81;;;12.80;100.00
24154;BME280;12312;53.362;-1.518;2023-05-08T09:55:46;99165.56;;;12.72;100.00
24154;BME280;12312;53.362;-1.518;2023-05-08T09:58:39;99159.00;;;12.87;100.00
24154;BME280;12312;53.362;-1.518;2023-05-08T10:01:35;99178.00;;;12.93;100.00
24154;BME280;12312;53.362;-1.518;2023-05-08T10:04:33;99170.25;;;12.90;100.00
24154;BME280;12312;53.362;-1.518;2023-05-08T10:07:38;99173.53;;;12.94;100.00
24154;BME280;12312;53.362;-1.518;2023-05-08T10:10:24;99168.47;;;12.80;100.00
24154;BME280;12312;53.362;-1.518;2023-05-08T10:13:13;99166.16;;;12.86;100.00
24154;BME280;12312;53.362;-1.518;2023-05-08T10:15:57;99162.63;;;12.86;100.00
24154;BME280;12312;53.362;-1.518;2023-05-08T10:18:49;99169.06;;;13.26;100.00
24154;BME280;12312;53.362;-1.518;2023-05-08T10:21:35;99159.84;;;13.19;100.00
24154;BME280;12312;53.362;-1.518;2023-05-08T10:24:26;99159.78;;;13.30;100.00
24154;BME280;12312;53.362;-1.518;2023-05-08T10:30:16;99156.84;;;13.33;100.00
24154;BME280;12312;53.362;-1.518;2023-05-08T10:33:01;99153.13;;;13.45;100.00
24154;BME280;12312;53.362;-1.518;2023-05-08T10:35:46;99160.97;;;13.57;100.00
24154;BME280;12312;53.362;-1.518;2023-05-08T10:38:32;99154.19;;;13.53;100.00
24154;BME280;12312;53.362;-1.518;2023-05-08T10:41:17;99154.38;;;13.61;100.00
24154;BME280;12312;53.362;-1.518;2023-05-08T10:44:02;99151.88;;;13.90;100.00
24154;BME280;12312;53.362;-1.518;2023-05-08T10:47:15;99153.91;;;14.07;100.00
24154;BME280;12312;53.362;-1.518;2023-05-08T10:50:24;99150.56;;;14.14;100.00
24154;BME280;12312;53.362;-1.518;2023-05-08T10:53:37;99149.78;;;14.23;100.00
24154;BME280;12312;53.362;-1.518;2023-05-08T10:56:27;99161.97;;;14.16;100.00
24154;BME280;12312;53.362;-1.518;2023-05-08T10:59:18;99158.66;;;14.24;100.00
24154;BME280;12312;53.362;-1.518;2023-05-08T11:02:06;99152.75;;;14.30;100.00
24154;BME280;12312;53.362;-1.518;2023-05-08T11:04:50;99154.59;;;14.29;100.00
24154;BME280;12312;53.362;-1.518;2023-05-08T11:08:12;99157.09;;;14.21;100.00
24154;BME280;12312;53.362;-1.518;2023-05-08T11:13:47;99151.00;;;14.19;100.00
24154;BME280;12312;53.362;-1.518;2023-05-08T11:19:36;99147.97;;;14.24;100.00
24154;BME280;12312;53.362;-1.518;2023-05-08T11:22:23;99149.09;;;14.31;100.00
24154;BME280;12312;53.362;-1.518;2023-05-08T11:25:08;99142.38;;;14.16;100.00
24154;BME280;12312;53.362;-1.518;2023-05-08T11:30:38;99153.94;;;14.16;100.00
24154;BME280;12312;53.362;-1.518;2023-05-08T11:33:29;99153.09;;;14.16;100.00
24154;BME280;12312;53.362;-1.518;2023-05-08T11:36:20;99153.88;;;13.97;100.00
24154;BME280;12312;53.362;-1.518;2023-05-08T11:39:08;99163.72;;;13.97;100.00
24154;BME280;12312;53.362;-1.518;2023-05-08T11:41:53;99161.78;;;13.99;100.00
24154;BME280;12312;53.362;-1.518;2023-05-08T11:44:37;99156.31;;;14.10;100.00
24154;BME280;12312;53.362;-1.518;2023-05-08T11:47:22;99158.31;;;13.87;100.00
24154;BME280;12312;53.362;-1.518;2023-05-08T11:50:12;99150.69;;;13.83;100.00
24154;BME280;12312;53.362;-1.518;2023-05-08T11:52:56;99162.00;;;13.86;100.00
24154;BME280;12312;53.362;-1.518;2023-05-08T11:55:40;99167.94;;;13.90;100.00
24154;BME280;12312;53.362;-1.518;2023-05-08T11:58:24;99171.75;;;13.67;100.00
24154;BME280;12312;53.362;-1.518;2023-05-08T12:01:08;99168.13;;;13.77;100.00
24154;BME280;12312;53.362;-1.518;2023-05-08T12:04:09;99157.22;;;13.90;100.00
24154;BME280;12312;53.362;-1.518;2023-05-08T12:06:56;99154.09;;;13.85;100.00
24154;BME280;12312;53.362;-1.518;2023-05-08T12:09:40;99158.00;;;13.81;100.00
24154;BME280;12312;53.362;-1.518;2023-05-08T12:12:38;99162.66;;;14.09;100.00
24154;BME280;12312;53.362;-1.518;2023-05-08T12:15:22;99165.78;;;14.14;100.00
24154;BME280;12312;53.362;-1.518;2023-05-08T12:18:06;99159.97;;;13.79;100.00
24154;BME280;12312;53.362;-1.518;2023-05-08T12:21:00;99155.34;;;14.11;100.00
24154;BME280;12312;53.362;-1.518;2023-05-08T12:23:44;99155.78;;;13.86;100.00
24154;BME280;12312;53.362;-1.518;2023-05-08T12:26:28;99168.69;;;13.81;100.00
24154;BME280;12312;53.362;-1.518;2023-05-08T12:29:12;99156.38;;;13.89;100.00
24154;BME280;12312;53.362;-1.518;2023-05-08T12:31:56;99166.41;;;13.97;100.00
24154;BME280;12312;53.362;-1.518;2023-05-08T12:34:41;99147.75;;;13.86;100.00
24154;BME280;12312;53.362;-1.518;2023-05-08T12:37:26;99144.53;;;13.92;100.00
24154;BME280;12312;53.362;-1.518;2023-05-08T12:40:24;99154.72;;;13.98;100.00
24154;BME280;12312;53.362;-1.518;2023-05-08T12:43:09;99146.78;;;13.87;100.00
24154;BME280;12312;53.362;-1.518;2023-05-08T12:45:53;99145.41;;;13.92;100.00
24154;BME280;12312;53.362;-1.518;2023-05-08T12:48:37;99135.84;;;13.99;100.00
24154;BME280;12312;53.362;-1.518;2023-05-08T12:51:28;99128.94;;;14.27;100.00
24154;BME280;12312;53.362;-1.518;2023-05-08T12:54:15;99123.03;;;14.33;100.00
24154;BME280;12312;53.362;-1.518;2023-05-08T12:56:59;99115.34;;;14.19;100.00
24154;BME280;12312;53.362;-1.518;2023-05-08T12:59:44;99122.16;;;14.23;100.00
24154;BME280;12312;53.362;-1.518;2023-05-08T13:02:28;99113.09;;;14.14;100.00
24154;BME280;12312;53.362;-1.518;2023-05-08T13:05:17;99123.09;;;14.12;100.00
24154;BME280;12312;53.362;-1.518;2023-05-08T13:08:03;99132.47;;;14.27;100.00
24154;BME280;12312;53.362;-1.518;2023-05-08T13:10:54;99142.50;;;14.35;100.00
24154;BME280;12312;53.362;-1.518;2023-05-08T13:13:38;99140.44;;;14.18;100.00
24154;BME280;12312;53.362;-1.518;2023-05-08T13:16:22;99131.09;;;14.03;100.00
24154;BME280;12312;53.362;-1.518;2023-05-08T13:19:06;99140.66;;;14.05;100.00
24154;BME280;12312;53.362;-1.518;2023-05-08T13:21:50;99144.78;;;14.09;100.00
24154;BME280;12312;53.362;-1.518;2023-05-08T13:24:35;99141.56;;;14.15;100.00
24154;BME280;12312;53.362;-1.518;2023-05-08T13:27:19;99135.63;;;14.12;100.00
24154;BME280;12312;53.362;-1.518;2023-05-08T13:30:03;99141.84;;;14.22;100.00
24154;BME280;12312;53.362;-1.518;2023-05-08T13:32:49;99129.66;;;14.29;100.00
24154;BME280;12312;53.362;-1.518;2023-05-08T13:35:34;99131.34;;;14.30;100.00
24154;BME280;12312;53.362;-1.518;2023-05-08T13:38:18;99126.44;;;14.35;100.00
24154;BME280;12312;53.362;-1.518;2023-05-08T13:41:02;99124.22;;;14.40;100.00
24154;BME280;12312;53.362;-1.518;2023-05-08T13:43:46;99119.66;;;14.31;100.00
24154;BME280;12312;53.362;-1.518;2023-05-08T13:46:30;99111.44;;;14.23;100.00
24154;BME280;12312;53.362;-1.518;2023-05-08T13:49:14;99108.66;;;14.34;100.00
24154;BME280;12312;53.362;-1.518;2023-05-08T13:51:58;99095.81;;;14.28;100.00
24154;BME280;12312;53.362;-1.518;2023-05-08T13:54:42;99092.06;;;14.40;100.00
24154;BME280;12312;53.362;-1.518;2023-05-08T13:57:26;99090.91;;;14.33;100.00
24154;BME280;12312;53.362;-1.518;2023-05-08T14:00:10;99081.66;;;14.56;100.00
24154;BME280;12312;53.362;-1.518;2023-05-08T14:02:56;99097.72;;;14.56;100.00
24154;BME280;12312;53.362;-1.518;2023-05-08T14:05:40;99090.97;;;14.52;100.00
24154;BME280;12312;53.362;-1.518;2023-05-08T14:08:24;99099.13;;;14.60;100.00
24154;BME280;12312;53.362;-1.518;2023-05-08T14:11:08;99090.97;;;14.71;100.00
24154;BME280;12312;53.362;-1.518;2023-05-08T14:13:54;99076.28;;;14.75;100.00
24154;BME280;12312;53.362;-1.518;2023-05-08T14:16:38;99071.50;;;14.69;100.00
24154;BME280;12312;53.362;-1.518;2023-05-08T14:19:22;99074.91;;;14.71;100.00
24154;BME280;12312;53.362;-1.518;2023-05-08T14:22:07;99062.50;;;14.70;100.00
24154;BME280;12312;53.362;-1.518;2023-05-08T14:24:52;99066.16;;;14.79;100.00
24154;BME280;12312;53.362;-1.518;2023-05-08T14:27:36;99068.84;;;14.88;100.00
24154;BME280;12312;53.362;-1.518;2023-05-08T14:30:20;99070.38;;;14.91;100.00
24154;BME280;12312;53.362;-1.518;2023-05-08T14:33:04;99060.53;;;14.91;100.00
24154;BME280;12312;53.362;-1.518;2023-05-08T14:35:48;99062.78;;;15.05;100.00
24154;BME280;12312;53.362;-1.518;2023-05-08T14:38:32;99063.63;;;14.96;100.00
24154;BME280;12312;53.362;-1.518;2023-05-08T14:41:15;99056.84;;;15.11;100.00
24154;BME280;12312;53.362;-1.518;2023-05-08T14:43:59;99056.00;;;14.82;100.00
24154;BME280;12312;53.362;-1.518;2023-05-08T14:46:43;99057.69;;;15.02;100.00